sensor_id;sensor_type;location;lat;lon;timestamp;temperature;humidity
21171;DHT22;10743;52.160;20.910;2022-11-15T00:00:25;22.60;38.50
21171;DHT22;10743;52.160;20.910;2022-11-15T00:03:14;22.70;38.60
21171;DHT22;10743;52.160;20.910;2022-11-15T00:06:04;22.70;38.50
21171;DHT22;10743;52.160;20.910;2022-11-15T00:08:49;22.70;38.40
21171;DHT22;10743;52.160;20.910;2022-11-15T00:11:38;22.70;38.40
21171;DHT22;10743;52.160;20.910;2022-11-15T00:14:24;22.80;38.40
21171;DHT22;10743;52.160;20.910;2022-11-15T00:17:10;22.80;38.30
21171;DHT22;10743;52.160;20.910;2022-11-15T00:19:55;22.80;38.30
21171;DHT22;10743;52.160;20.910;2022-11-15T00:22:41;22.70;38.40
21171;DHT22;10743;52.160;20.910;2022-11-15T00:25:26;22.70;38.40
21171;DHT22;10743;52.160;20.910;2022-11-15T00:28:12;22.80;38.40
21171;DHT22;10743;52.160;20.910;2022-11-15T00:31:06;22.80;38.50
21171;DHT22;10743;52.160;20.910;2022-11-15T00:33:53;22.70;38.50
21171;DHT22;10743;52.160;20.910;2022-11-15T00:36:39;22.80;38.50
21171;DHT22;10743;52.160;20.910;2022-11-15T00:39:24;22.80;38.50
21171;DHT22;10743;52.160;20.910;2022-11-15T00:42:09;22.80;38.40
21171;DHT22;10743;52.160;20.910;2022-11-15T00:44:55;22.80;38.40
21171;DHT22;10743;52.160;20.910;2022-11-15T00:47:43;22.80;38.50
21171;DHT22;10743;52.160;20.910;2022-11-15T00:50:30;22.80;39.20
21171;DHT22;10743;52.160;20.910;2022-11-15T00:53:16;22.70;38.50
21171;DHT22;10743;52.160;20.910;2022-11-15T00:56:02;22.70;38.50
21171;DHT22;10743;52.160;20.910;2022-11-15T00:58:47;22.70;39.40
21171;DHT22;10743;52.160;20.910;2022-11-15T01:01:32;22.80;38.50
21171;DHT22;10743;52.160;20.910;2022-11-15T01:04:18;22.80;38.50
21171;DHT22;10743;52.160;20.910;2022-11-15T01:07:03;22.70;38.60
21171;DHT22;10743;52.160;20.910;2022-11-15T01:09:48;22.70;38.80
21171;DHT22;10743;52.160;20.910;2022-11-15T01:12:34;22.60;39.50
21171;DHT22;10743;52.160;20.910;2022-11-15T01:15:19;22.60;39.60
21171;DHT22;10743;52.160;20.910;2022-11-15T01:18:04;22.60;38.90
21171;DHT22;10743;52.160;20.910;2022-11-15T01:20:50;22.70;38.90
21171;DHT22;10743;52.160;20.910;2022-11-15T01:23:35;22.70;38.90
21171;DHT22;10743;52.160;20.910;2022-11-15T01:26:21;22.70;38.80
21171;DHT22;10743;52.160;20.910;2022-11-15T01:29:07;22.80;38.70
21171;DHT22;10743;52.160;20.910;2022-11-15T01:31:53;22.80;38.50
21171;DHT22;10743;52.160;20.910;2022-11-15T01:34:39;22.80;38.50
21171;DHT22;10743;52.160;20.910;2022-11-15T01:37:25;22.80;38.70
21171;DHT22;10743;52.160;20.910;2022-11-15T01:40:10;22.80;38.50
21171;DHT22;10743;52.160;20.910;2022-11-15T01:42:56;22.80;38.50
21171;DHT22;10743;52.160;20.910;2022-11-15T01:45:48;22.80;38.50
21171;DHT22;10743;52.160;20.910;2022-11-15T01:48:37;22.80;38.40
21171;DHT22;10743;52.160;20.910;2022-11-15T01:51:24;22.70;38.50
21171;DHT22;10743;52.160;20.910;2022-11-15T01:54:15;22.80;38.50
21171;DHT22;10743;52.160;20.910;2022-11-15T01:57:05;22.80;38.50
21171;DHT22;10743;52.160;20.910;2022-11-15T01:59:54;22.80;38.60
21171;DHT22;10743;52.160;20.910;2022-11-15T02:02:40;22.80;38.70
21171;DHT22;10743;52.160;20.910;2022-11-15T02:05:26;22.70;38.70
21171;DHT22;10743;52.160;20.910;2022-11-15T02:08:11;22.70;38.90
21171;DHT22;10743;52.160;20.910;2022-11-15T02:11:08;22.60;39.00
21171;DHT22;10743;52.160;20.910;2022-11-15T02:13:55;22.60;39.00
21171;DHT22;10743;52.160;20.910;2022-11-15T02:16:58;22.60;39.00
21171;DHT22;10743;52.160;20.910;2022-11-15T02:20:20;22.60;39.00
21171;DHT22;10743;52.160;20.910;2022-11-15T02:24:03;22.70;38.80
21171;DHT22;10743;52.160;20.910;2022-11-15T02:43:46;22.80;38.50
21171;DHT22;10743;52.160;20.910;2022-11-15T02:47:06;22.70;38.60
21171;DHT22;10743;52.160;20.910;2022-11-15T02:50:07;22.70;38.60
21171;DHT22;10743;52.160;20.910;2022-11-15T02:52:54;22.70;38.60
21171;DHT22;10743;52.160;20.910;2022-11-15T02:55:50;22.60;38.80
21171;DHT22;10743;52.160;20.910;2022-11-15T03:09:17;22.50;39.00
21171;DHT22;10743;52.160;20.910;2022-11-15T03:12:30;22.50;39.20
21171;DHT22;10743;52.160;20.910;2022-11-15T03:15:27;22.50;39.10
21171;DHT22;10743;52.160;20.910;2022-11-15T03:18:26;22.50;39.10
21171;DHT22;10743;52.160;20.910;2022-11-15T03:21:19;22.50;39.10
21171;DHT22;10743;52.160;20.910;2022-11-15T03:24:08;22.60;38.90
21171;DHT22;10743;52.160;20.910;2022-11-15T03:26:54;22.60;38.90
21171;DHT22;10743;52.160;20.910;2022-11-15T03:29:46;22.60;39.00
21171;DHT22;10743;52.160;20.910;2022-11-15T03:32:40;22.60;38.90
21171;DHT22;10743;52.160;20.910;2022-11-15T03:35:40;22.60;38.90
21171;DHT22;10743;52.160;20.910;2022-11-15T03:38:30;22.60;38.90
21171;DHT22;10743;52.160;20.910;2022-11-15T03:41:31;22.60;39.60
21171;DHT22;10743;52.160;20.910;2022-11-15T03:44:47;22.50;39.10
21171;DHT22;10743;52.160;20.910;2022-11-15T03:47:43;22.50;38.90
21171;DHT22;10743;52.160;20.910;2022-11-15T03:50:32;22.50;39.00
21171;DHT22;10743;52.160;20.910;2022-11-15T03:53:17;22.50;39.00
21171;DHT22;10743;52.160;20.910;2022-11-15T03:56:03;22.50;39.00
21171;DHT22;10743;52.160;20.910;2022-11-15T03:58:48;22.60;38.90
21171;DHT22;10743;52.160;20.910;2022-11-15T04:01:34;22.50;38.90
21171;DHT22;10743;52.160;20.910;2022-11-15T04:04:19;22.50;39.00
21171;DHT22;10743;52.160;20.910;2022-11-15T04:07:05;22.50;39.00
21171;DHT22;10743;52.160;20.910;2022-11-15T04:09:51;22.50;39.00
21171;DHT22;10743;52.160;20.910;2022-11-15T04:12:48;22.50;38.90
21171;DHT22;10743;52.160;20.910;2022-11-15T04:15:34;22.50;39.10
21171;DHT22;10743;52.160;20.910;2022-11-15T04:18:20;22.40;39.30
21171;DHT22;10743;52.160;20.910;2022-11-15T04:21:06;22.50;39.20
21171;DHT22;10743;52.160;20.910;2022-11-15T04:24:12;22.60;39.00
21171;DHT22;10743;52.160;20.910;2022-11-15T04:26:57;22.60;38.80
21171;DHT22;10743;52.160;20.910;2022-11-15T04:29:43;22.60;38.80
21171;DHT22;10743;52.160;20.910;2022-11-15T04:32:28;22.50;38.90
21171;DHT22;10743;52.160;20.910;2022-11-15T04:35:14;22.50;39.00
21171;DHT22;10743;52.160;20.910;2022-11-15T04:38:00;22.50;38.90
21171;DHT22;10743;52.160;20.910;2022-11-15T04:40:47;22.50;39.60
21171;DHT22;10743;52.160;20.910;2022-11-15T04:43:32;22.50;38.80
21171;DHT22;10743;52.160;20.910;2022-11-15T04:46:18;22.50;38.90
21171;DHT22;10743;52.160;20.910;2022-11-15T04:49:03;22.40;39.00
21171;DHT22;10743;52.160;20.910;2022-11-15T04:51:49;22.50;39.20
21171;DHT22;10743;52.160;20.910;2022-11-15T04:54:34;22.30;39.20
21171;DHT22;10743;52.160;20.910;2022-11-15T04:57:19;22.30;39.30
21171;DHT22;10743;52.160;20.910;2022-11-15T05:00:08;22.30;39.40
21171;DHT22;10743;52.160;20.910;2022-11-15T05:02:56;22.30;39.40
21171;DHT22;10743;52.160;20.910;2022-11-15T05:06:01;22.30;39.30
21171;DHT22;10743;52.160;20.910;2022-11-15T05:08:46;22.30;39.30
21171;DHT22;10743;52.160;20.910;2022-11-15T05:11:32;22.40;39.20
21171;DHT22;10743;52.160;20.910;2022-11-15T05:14:17;22.30;39.30
21171;DHT22;10743;52.160;20.910;2022-11-15T05:17:02;24.90;40.70
21171;DHT22;10743;52.160;20.910;2022-11-15T05:19:48;22.30;39.30
21171;DHT22;10743;52.160;20.910;2022-11-15T05:22:33;22.20;39.40
21171;DHT22;10743;52.160;20.910;2022-11-15T05:25:19;22.30;39.50
21171;DHT22;10743;52.160;20.910;2022-11-15T05:28:04;22.20;39.50
21171;DHT22;10743;52.160;20.910;2022-11-15T05:30:50;22.20;39.50
21171;DHT22;10743;52.160;20.910;2022-11-15T05:33:36;22.30;39.30
21171;DHT22;10743;52.160;20.910;2022-11-15T05:39:24;22.20;39.20
21171;DHT22;10743;52.160;20.910;2022-11-15T05:42:13;22.20;39.20
21171;DHT22;10743;52.160;20.910;2022-11-15T05:45:00;22.10;39.20
21171;DHT22;10743;52.160;20.910;2022-11-15T05:47:49;22.20;39.10
21171;DHT22;10743;52.160;20.910;2022-11-15T05:50:36;22.20;39.10
21171;DHT22;10743;52.160;20.910;2022-11-15T05:53:24;22.10;39.10
21171;DHT22;10743;52.160;20.910;2022-11-15T05:56:11;22.20;39.20
21171;DHT22;10743;52.160;20.910;2022-11-15T05:58:57;22.20;39.00
21171;DHT22;10743;52.160;20.910;2022-11-15T06:01:44;22.20;39.10
21171;DHT22;10743;52.160;20.910;2022-11-15T06:04:30;22.10;39.20
21171;DHT22;10743;52.160;20.910;2022-11-15T06:07:16;22.10;39.20
21171;DHT22;10743;52.160;20.910;2022-11-15T06:10:02;22.20;39.10
21171;DHT22;10743;52.160;20.910;2022-11-15T06:13:02;22.10;39.00
21171;DHT22;10743;52.160;20.910;2022-11-15T06:15:48;22.10;38.90
21171;DHT22;10743;52.160;20.910;2022-11-15T06:18:34;22.00;39.00
21171;DHT22;10743;52.160;20.910;2022-11-15T06:21:21;21.90;39.20
21171;DHT22;10743;52.160;20.910;2022-11-15T06:24:06;21.80;39.20
21171;DHT22;10743;52.160;20.910;2022-11-15T06:26:52;21.90;39.20
21171;DHT22;10743;52.160;20.910;2022-11-15T06:29:38;21.90;39.10
21171;DHT22;10743;52.160;20.910;2022-11-15T06:32:23;21.90;39.10
21171;DHT22;10743;52.160;20.910;2022-11-15T06:35:08;21.90;39.20
21171;DHT22;10743;52.160;20.910;2022-11-15T06:37:55;21.80;39.30
21171;DHT22;10743;52.160;20.910;2022-11-15T06:40:40;22.00;39.20
21171;DHT22;10743;52.160;20.910;2022-11-15T06:43:26;22.40;39.20
21171;DHT22;10743;52.160;20.910;2022-11-15T06:46:11;22.00;39.10
21171;DHT22;10743;52.160;20.910;2022-11-15T06:48:57;22.00;39.20
21171;DHT22;10743;52.160;20.910;2022-11-15T06:51:42;21.90;39.10
21171;DHT22;10743;52.160;20.910;2022-11-15T06:54:27;21.90;39.20
21171;DHT22;10743;52.160;20.910;2022-11-15T06:57:13;21.90;39.30
21171;DHT22;10743;52.160;20.910;2022-11-15T06:59:58;21.90;39.20
21171;DHT22;10743;52.160;20.910;2022-11-15T07:02:44;21.90;39.30
21171;DHT22;10743;52.160;20.910;2022-11-15T07:05:30;21.90;39.30
21171;DHT22;10743;52.160;20.910;2022-11-15T07:08:15;21.80;39.40
21171;DHT22;10743;52.160;20.910;2022-11-15T07:11:03;21.80;40.10
21171;DHT22;10743;52.160;20.910;2022-11-15T07:13:50;21.90;39.20
21171;DHT22;10743;52.160;20.910;2022-11-15T07:16:36;21.90;39.30
21171;DHT22;10743;52.160;20.910;2022-11-15T07:19:22;21.90;39.20
21171;DHT22;10743;52.160;20.910;2022-11-15T07:22:07;21.80;39.40
21171;DHT22;10743;52.160;20.910;2022-11-15T07:24:52;21.80;39.40
21171;DHT22;10743;52.160;20.910;2022-11-15T07:27:38;21.80;39.40
21171;DHT22;10743;52.160;20.910;2022-11-15T07:30:24;21.80;39.40
21171;DHT22;10743;52.160;20.910;2022-11-15T07:33:11;21.90;39.20
21171;DHT22;10743;52.160;20.910;2022-11-15T07:36:01;21.90;39.20
21171;DHT22;10743;52.160;20.910;2022-11-15T07:38:49;21.90;39.40
21171;DHT22;10743;52.160;20.910;2022-11-15T07:41:34;21.70;39.50
21171;DHT22;10743;52.160;20.910;2022-11-15T07:44:20;21.80;39.50
21171;DHT22;10743;52.160;20.910;2022-11-15T07:47:05;22.00;39.70
21171;DHT22;10743;52.160;20.910;2022-11-15T07:49:50;21.80;39.60
21171;DHT22;10743;52.160;20.910;2022-11-15T07:52:37;21.80;39.50
21171;DHT22;10743;52.160;20.910;2022-11-15T07:55:23;21.90;39.50
21171;DHT22;10743;52.160;20.910;2022-11-15T07:58:11;21.90;39.50
21171;DHT22;10743;52.160;20.910;2022-11-15T08:00:57;21.90;39.50
21171;DHT22;10743;52.160;20.910;2022-11-15T08:03:43;22.00;39.30
21171;DHT22;10743;52.160;20.910;2022-11-15T08:06:28;22.00;39.20
21171;DHT22;10743;52.160;20.910;2022-11-15T08:09:13;22.00;39.20
21171;DHT22;10743;52.160;20.910;2022-11-15T08:11:59;22.00;39.10
21171;DHT22;10743;52.160;20.910;2022-11-15T08:14:44;22.00;39.20
21171;DHT22;10743;52.160;20.910;2022-11-15T08:17:29;24.80;40.60
21171;DHT22;10743;52.160;20.910;2022-11-15T08:20:17;22.00;39.20
21171;DHT22;10743;52.160;20.910;2022-11-15T08:23:05;22.00;39.30
21171;DHT22;10743;52.160;20.910;2022-11-15T08:25:51;22.00;39.30
21171;DHT22;10743;52.160;20.910;2022-11-15T08:28:37;22.10;39.30
21171;DHT22;10743;52.160;20.910;2022-11-15T08:31:23;22.60;39.40
21171;DHT22;10743;52.160;20.910;2022-11-15T08:34:08;22.10;39.20
21171;DHT22;10743;52.160;20.910;2022-11-15T08:36:53;22.10;39.30
21171;DHT22;10743;52.160;20.910;2022-11-15T08:39:39;22.10;39.30
21171;DHT22;10743;52.160;20.910;2022-11-15T08:42:24;22.10;39.30
21171;DHT22;10743;52.160;20.910;2022-11-15T08:45:10;22.10;39.20
21171;DHT22;10743;52.160;20.910;2022-11-15T08:47:56;22.10;39.30
21171;DHT22;10743;52.160;20.910;2022-11-15T08:50:41;22.10;39.30
21171;DHT22;10743;52.160;20.910;2022-11-15T08:53:29;22.10;39.50
21171;DHT22;10743;52.160;20.910;2022-11-15T08:56:15;22.10;39.50
21171;DHT22;10743;52.160;20.910;2022-11-15T08:59:00;22.10;39.30
21171;DHT22;10743;52.160;20.910;2022-11-15T09:01:46;22.20;39.30
21171;DHT22;10743;52.160;20.910;2022-11-15T09:04:31;22.20;39.20
21171;DHT22;10743;52.160;20.910;2022-11-15T09:07:17;22.20;39.30
21171;DHT22;10743;52.160;20.910;2022-11-15T09:10:03;22.20;39.20
21171;DHT22;10743;52.160;20.910;2022-11-15T09:12:49;22.20;39.40
21171;DHT22;10743;52.160;20.910;2022-11-15T09:15:34;22.20;39.30
21171;DHT22;10743;52.160;20.910;2022-11-15T09:18:20;22.10;39.50
21171;DHT22;10743;52.160;20.910;2022-11-15T09:21:08;22.20;39.50
21171;DHT22;10743;52.160;20.910;2022-11-15T09:23:54;22.20;40.00
21171;DHT22;10743;52.160;20.910;2022-11-15T09:26:40;22.20;39.50
21171;DHT22;10743;52.160;20.910;2022-11-15T09:29:26;22.20;39.50
21171;DHT22;10743;52.160;20.910;2022-11-15T09:32:11;22.30;39.40
21171;DHT22;10743;52.160;20.910;2022-11-15T09:34:57;22.30;39.30
21171;DHT22;10743;52.160;20.910;2022-11-15T09:37:43;22.40;39.20
21171;DHT22;10743;52.160;20.910;2022-11-15T09:40:30;22.40;39.20
21171;DHT22;10743;52.160;20.910;2022-11-15T09:43:33;22.40;39.20
21171;DHT22;10743;52.160;20.910;2022-11-15T09:50:09;22.50;39.00
21171;DHT22;10743;52.160;20.910;2022-11-15T09:52:42;22.50;39.10
21171;DHT22;10743;52.160;20.910;2022-11-15T09:55:12;22.40;39.20
21171;DHT22;10743;52.160;20.910;2022-11-15T09:57:56;22.40;39.20
21171;DHT22;10743;52.160;20.910;2022-11-15T10:00:46;22.40;39.30
21171;DHT22;10743;52.160;20.910;2022-11-15T10:03:27;22.40;39.30
21171;DHT22;10743;52.160;20.910;2022-11-15T10:06:00;22.40;39.40
21171;DHT22;10743;52.160;20.910;2022-11-15T10:08:53;22.40;39.30
21171;DHT22;10743;52.160;20.910;2022-11-15T10:11:32;22.50;39.30
21171;DHT22;10743;52.160;20.910;2022-11-15T10:14:15;22.60;39.10
21171;DHT22;10743;52.160;20.910;2022-11-15T10:16:52;22.60;39.20
21171;DHT22;10743;52.160;20.910;2022-11-15T10:19:47;22.70;39.10
21171;DHT22;10743;52.160;20.910;2022-11-15T10:25:18;22.90;38.80
21171;DHT22;10743;52.160;20.910;2022-11-15T10:30:37;23.00;38.50
21171;DHT22;10743;52.160;20.910;2022-11-15T10:41:18;22.90;38.80
21171;DHT22;10743;52.160;20.910;2022-11-15T10:49:27;22.90;39.20
21171;DHT22;10743;52.160;20.910;2022-11-15T10:51:58;22.90;38.80
21171;DHT22;10743;52.160;20.910;2022-11-15T10:54:40;22.90;39.00
21171;DHT22;10743;52.160;20.910;2022-11-15T10:57:14;22.80;39.10
21171;DHT22;10743;52.160;20.910;2022-11-15T10:59:46;22.90;39.20
21171;DHT22;10743;52.160;20.910;2022-11-15T11:02:32;22.90;39.20
21171;DHT22;10743;52.160;20.910;2022-11-15T11:05:02;22.90;39.20
21171;DHT22;10743;52.160;20.910;2022-11-15T11:07:32;23.00;39.10
21171;DHT22;10743;52.160;20.910;2022-11-15T11:10:21;23.00;39.00
21171;DHT22;10743;52.160;20.910;2022-11-15T11:13:22;23.00;38.80
21171;DHT22;10743;52.160;20.910;2022-11-15T11:21:43;23.00;39.20
21171;DHT22;10743;52.160;20.910;2022-11-15T11:24:36;23.00;39.20
21171;DHT22;10743;52.160;20.910;2022-11-15T11:27:36;23.10;39.90
21171;DHT22;10743;52.160;20.910;2022-11-15T11:36:21;23.20;38.70
21171;DHT22;10743;52.160;20.910;2022-11-15T11:41:57;23.20;38.90
21171;DHT22;10743;52.160;20.910;2022-11-15T11:45:14;23.20;39.00
21171;DHT22;10743;52.160;20.910;2022-11-15T11:51:07;23.30;39.40
21171;DHT22;10743;52.160;20.910;2022-11-15T11:56:28;23.30;38.80
21171;DHT22;10743;52.160;20.910;2022-11-15T11:59:02;23.30;38.80
21171;DHT22;10743;52.160;20.910;2022-11-15T12:01:41;23.30;38.70
21171;DHT22;10743;52.160;20.910;2022-11-15T12:07:01;23.30;38.70
21171;DHT22;10743;52.160;20.910;2022-11-15T12:09:43;23.30;38.80
21171;DHT22;10743;52.160;20.910;2022-11-15T12:15:11;23.30;38.70
21171;DHT22;10743;52.160;20.910;2022-11-15T12:17:41;23.40;38.70
21171;DHT22;10743;52.160;20.910;2022-11-15T12:20:21;23.40;38.70
21171;DHT22;10743;52.160;20.910;2022-11-15T12:23:08;23.40;38.70
21171;DHT22;10743;52.160;20.910;2022-11-15T12:26:06;23.40;38.80
21171;DHT22;10743;52.160;20.910;2022-11-15T12:28:55;23.40;38.70
21171;DHT22;10743;52.160;20.910;2022-11-15T12:36:48;23.50;38.50
21171;DHT22;10743;52.160;20.910;2022-11-15T12:39:17;23.50;38.50
21171;DHT22;10743;52.160;20.910;2022-11-15T12:59:53;23.60;38.40
21171;DHT22;10743;52.160;20.910;2022-11-15T13:02:39;24.20;38.70
21171;DHT22;10743;52.160;20.910;2022-11-15T13:13:00;23.60;38.20
21171;DHT22;10743;52.160;20.910;2022-11-15T13:15:52;23.70;38.20
21171;DHT22;10743;52.160;20.910;2022-11-15T13:18:35;23.60;38.20
21171;DHT22;10743;52.160;20.910;2022-11-15T13:21:17;23.60;38.20
21171;DHT22;10743;52.160;20.910;2022-11-15T13:24:09;23.60;38.20
21171;DHT22;10743;52.160;20.910;2022-11-15T13:26:39;23.60;38.30
21171;DHT22;10743;52.160;20.910;2022-11-15T13:29:18;23.60;38.30
21171;DHT22;10743;52.160;20.910;2022-11-15T13:31:46;23.60;38.50
21171;DHT22;10743;52.160;20.910;2022-11-15T13:34:27;23.60;38.60
21171;DHT22;10743;52.160;20.910;2022-11-15T13:39:48;23.60;38.60
21171;DHT22;10743;52.160;20.910;2022-11-15T13:42:17;23.60;38.60
21171;DHT22;10743;52.160;20.910;2022-11-15T13:44:56;23.60;38.60
21171;DHT22;10743;52.160;20.910;2022-11-15T13:47:28;23.60;38.60
21171;DHT22;10743;52.160;20.910;2022-11-15T13:49:59;23.60;38.50
21171;DHT22;10743;52.160;20.910;2022-11-15T13:52:32;23.60;38.60
21171;DHT22;10743;52.160;20.910;2022-11-15T13:55:01;23.60;38.50
21171;DHT22;10743;52.160;20.910;2022-11-15T13:57:42;23.60;38.50
21171;DHT22;10743;52.160;20.910;2022-11-15T14:00:29;23.60;38.50
21171;DHT22;10743;52.160;20.910;2022-11-15T14:03:19;23.60;38.30
21171;DHT22;10743;52.160;20.910;2022-11-15T14:06:12;23.60;38.30
21171;DHT22;10743;52.160;20.910;2022-11-15T14:09:04;23.50;38.40
21171;DHT22;10743;52.160;20.910;2022-11-15T14:11:54;23.60;39.10
21171;DHT22;10743;52.160;20.910;2022-11-15T14:14:24;23.50;38.50
21171;DHT22;10743;52.160;20.910;2022-11-15T14:16:53;23.50;38.50
21171;DHT22;10743;52.160;20.910;2022-11-15T14:25:16;23.50;38.50
21171;DHT22;10743;52.160;20.910;2022-11-15T14:30:45;23.50;38.50
21171;DHT22;10743;52.160;20.910;2022-11-15T14:33:26;23.50;38.50
21171;DHT22;10743;52.160;20.910;2022-11-15T14:35:58;23.50;38.50
21171;DHT22;10743;52.160;20.910;2022-11-15T14:38:29;23.50;38.50
21171;DHT22;10743;52.160;20.910;2022-11-15T14:40:56;23.50;38.60
21171;DHT22;10743;52.160;20.910;2022-11-15T14:43:24;23.50;38.60
21171;DHT22;10743;52.160;20.910;2022-11-15T14:45:51;23.50;38.60
21171;DHT22;10743;52.160;20.910;2022-11-15T14:48:18;23.50;38.60
21171;DHT22;10743;52.160;20.910;2022-11-15T14:50:45;23.50;38.60
21171;DHT22;10743;52.160;20.910;2022-11-15T14:53:15;23.50;38.60
21171;DHT22;10743;52.160;20.910;2022-11-15T14:55:43;23.50;38.70
21171;DHT22;10743;52.160;20.910;2022-11-15T14:58:10;23.50;38.70
21171;DHT22;10743;52.160;20.910;2022-11-15T15:00:39;23.40;38.60
21171;DHT22;10743;52.160;20.910;2022-11-15T15:03:07;23.40;38.60
21171;DHT22;10743;52.160;20.910;2022-11-15T15:05:40;23.40;38.60
21171;DHT22;10743;52.160;20.910;2022-11-15T15:08:09;23.40;38.50
21171;DHT22;10743;52.160;20.910;2022-11-15T15:10:40;23.40;38.60
21171;DHT22;10743;52.160;20.910;2022-11-15T15:13:20;23.40;39.30
21171;DHT22;10743;52.160;20.910;2022-11-15T15:15:50;23.40;38.60
21171;DHT22;10743;52.160;20.910;2022-11-15T15:18:18;23.40;38.60
21171;DHT22;10743;52.160;20.910;2022-11-15T15:20:53;23.40;38.70
21171;DHT22;10743;52.160;20.910;2022-11-15T15:23:22;23.40;38.60
21171;DHT22;10743;52.160;20.910;2022-11-15T15:25:52;23.40;38.70
21171;DHT22;10743;52.160;20.910;2022-11-15T15:28:19;23.40;38.70
21171;DHT22;10743;52.160;20.910;2022-11-15T15:30:46;23.30;38.60
21171;DHT22;10743;52.160;20.910;2022-11-15T15:33:13;23.30;38.60
21171;DHT22;10743;52.160;20.910;2022-11-15T15:35:40;23.40;38.50
21171;DHT22;10743;52.160;20.910;2022-11-15T15:38:11;23.30;38.50
21171;DHT22;10743;52.160;20.910;2022-11-15T15:40:39;23.30;38.50
21171;DHT22;10743;52.160;20.910;2022-11-15T15:43:06;23.30;38.60
21171;DHT22;10743;52.160;20.910;2022-11-15T15:45:37;23.30;38.70
21171;DHT22;10743;52.160;20.910;2022-11-15T15:48:07;23.20;38.70
21171;DHT22;10743;52.160;20.910;2022-11-15T15:50:37;23.20;38.80
21171;DHT22;10743;52.160;20.910;2022-11-15T15:53:05;23.20;38.80
21171;DHT22;10743;52.160;20.910;2022-11-15T15:55:32;23.20;38.80
21171;DHT22;10743;52.160;20.910;2022-11-15T15:57:59;23.20;38.80
21171;DHT22;10743;52.160;20.910;2022-11-15T16:00:25;23.20;38.80
21171;DHT22;10743;52.160;20.910;2022-11-15T16:02:53;23.20;38.70
21171;DHT22;10743;52.160;20.910;2022-11-15T16:05:21;23.20;38.70
21171;DHT22;10743;52.160;20.910;2022-11-15T16:07:48;23.20;38.70
21171;DHT22;10743;52.160;20.910;2022-11-15T16:10:25;23.20;38.70
21171;DHT22;10743;52.160;20.910;2022-11-15T16:12:57;23.20;38.70
21171;DHT22;10743;52.160;20.910;2022-11-15T16:15:26;23.20;38.80
21171;DHT22;10743;52.160;20.910;2022-11-15T16:17:56;23.10;38.70
21171;DHT22;10743;52.160;20.910;2022-11-15T16:20:41;23.10;38.70
21171;DHT22;10743;52.160;20.910;2022-11-15T16:23:16;23.10;38.80
21171;DHT22;10743;52.160;20.910;2022-11-15T16:25:49;23.10;38.80
21171;DHT22;10743;52.160;20.910;2022-11-15T16:28:32;23.20;38.90
21171;DHT22;10743;52.160;20.910;2022-11-15T16:31:09;23.20;38.90
21171;DHT22;10743;52.160;20.910;2022-11-15T16:33:38;23.20;38.80
21171;DHT22;10743;52.160;20.910;2022-11-15T16:38:55;23.20;38.80
21171;DHT22;10743;52.160;20.910;2022-11-15T16:41:22;23.20;38.70
21171;DHT22;10743;52.160;20.910;2022-11-15T16:43:49;23.10;38.70
21171;DHT22;10743;52.160;20.910;2022-11-15T16:46:22;23.10;38.90
21171;DHT22;10743;52.160;20.910;2022-11-15T16:48:50;23.20;38.90
21171;DHT22;10743;52.160;20.910;2022-11-15T16:51:19;23.10;38.80
21171;DHT22;10743;52.160;20.910;2022-11-15T16:53:46;23.10;38.80
21171;DHT22;10743;52.160;20.910;2022-11-15T16:56:26;23.10;38.90
21171;DHT22;10743;52.160;20.910;2022-11-15T16:58:55;23.10;38.80
21171;DHT22;10743;52.160;20.910;2022-11-15T17:01:29;23.10;38.90
21171;DHT22;10743;52.160;20.910;2022-11-15T17:03:58;23.10;38.90
21171;DHT22;10743;52.160;20.910;2022-11-15T17:06:25;23.10;38.90
21171;DHT22;10743;52.160;20.910;2022-11-15T17:08:53;23.10;38.90
21171;DHT22;10743;52.160;20.910;2022-11-15T17:11:21;23.10;38.90
21171;DHT22;10743;52.160;20.910;2022-11-15T17:13:48;23.10;38.90
21171;DHT22;10743;52.160;20.910;2022-11-15T17:16:16;23.10;38.90
21171;DHT22;10743;52.160;20.910;2022-11-15T17:18:44;23.10;38.90
21171;DHT22;10743;52.160;20.910;2022-11-15T17:21:17;23.10;39.00
21171;DHT22;10743;52.160;20.910;2022-11-15T17:23:46;23.10;38.90
21171;DHT22;10743;52.160;20.910;2022-11-15T17:26:14;23.10;38.90
21171;DHT22;10743;52.160;20.910;2022-11-15T17:29:02;23.00;38.80
21171;DHT22;10743;52.160;20.910;2022-11-15T17:31:30;23.10;38.90
21171;DHT22;10743;52.160;20.910;2022-11-15T17:34:00;23.00;38.80
21171;DHT22;10743;52.160;20.910;2022-11-15T17:36:28;23.10;38.80
21171;DHT22;10743;52.160;20.910;2022-11-15T17:38:55;23.10;38.80
21171;DHT22;10743;52.160;20.910;2022-11-15T17:41:26;23.00;38.80
21171;DHT22;10743;52.160;20.910;2022-11-15T17:43:58;23.10;38.90
21171;DHT22;10743;52.160;20.910;2022-11-15T17:46:27;23.00;38.80
21171;DHT22;10743;52.160;20.910;2022-11-15T17:48:55;23.00;38.90
21171;DHT22;10743;52.160;20.910;2022-11-15T17:51:22;23.00;38.80
21171;DHT22;10743;52.160;20.910;2022-11-15T17:53:50;23.00;38.90
21171;DHT22;10743;52.160;20.910;2022-11-15T17:56:20;23.00;38.80
21171;DHT22;10743;52.160;20.910;2022-11-15T17:58:53;23.00;38.90
21171;DHT22;10743;52.160;20.910;2022-11-15T18:01:28;23.00;38.90
21171;DHT22;10743;52.160;20.910;2022-11-15T18:03:58;23.00;38.90
21171;DHT22;10743;52.160;20.910;2022-11-15T18:06:29;23.00;38.90
21171;DHT22;10743;52.160;20.910;2022-11-15T18:08:59;23.00;38.90
21171;DHT22;10743;52.160;20.910;2022-11-15T18:11:32;22.90;38.80
21171;DHT22;10743;52.160;20.910;2022-11-15T18:14:06;23.00;38.90
21171;DHT22;10743;52.160;20.910;2022-11-15T18:16:36;23.00;38.80
21171;DHT22;10743;52.160;20.910;2022-11-15T18:19:03;23.10;38.70
21171;DHT22;10743;52.160;20.910;2022-11-15T18:21:44;23.10;38.60
21171;DHT22;10743;52.160;20.910;2022-11-15T18:24:29;23.10;38.60
21171;DHT22;10743;52.160;20.910;2022-11-15T18:27:02;23.10;38.50
21171;DHT22;10743;52.160;20.910;2022-11-15T18:29:30;23.80;38.80
21171;DHT22;10743;52.160;20.910;2022-11-15T18:31:59;23.10;38.50
21171;DHT22;10743;52.160;20.910;2022-11-15T18:34:27;23.10;38.50
21171;DHT22;10743;52.160;20.910;2022-11-15T18:37:02;23.10;38.50
21171;DHT22;10743;52.160;20.910;2022-11-15T18:39:30;23.00;38.50
21171;DHT22;10743;52.160;20.910;2022-11-15T18:41:57;23.00;38.60
21171;DHT22;10743;52.160;20.910;2022-11-15T18:44:24;23.00;38.60
21171;DHT22;10743;52.160;20.910;2022-11-15T18:46:50;23.00;39.30
21171;DHT22;10743;52.160;20.910;2022-11-15T18:49:17;23.00;38.60